createdAt,value
2022-10-26T00:00:45.312Z,10.03
2022-10-26T00:03:12.336Z,9.97
2022-10-26T00:05:39.608Z,9.84
2022-10-26T00:08:06.627Z,9.66
2022-10-26T00:10:38.127Z,9.65
2022-10-26T00:13:09.005Z,9.78
2022-10-26T00:15:35.631Z,9.76
2022-10-26T00:18:02.238Z,9.91
2022-10-26T00:20:28.813Z,9.95
2022-10-26T00:22:55.392Z,9.99
2022-10-26T00:25:22.049Z,9.99
2022-10-26T00:27:49.000Z,10.13
2022-10-26T00:30:16.101Z,10.10
2022-10-26T00:32:42.686Z,10.24
2022-10-26T00:35:21.296Z,10.03
2022-10-26T00:37:56.044Z,9.99
2022-10-26T00:40:27.190Z,9.91
2022-10-26T00:42:53.856Z,10.06
2022-10-26T00:45:29.007Z,10.10
2022-10-26T00:48:02.994Z,10.11
2022-10-26T00:50:36.938Z,10.02
2022-10-26T00:53:06.886Z,10.02
2022-10-26T00:55:41.616Z,10.09
2022-10-26T00:58:09.891Z,10.13
2022-10-26T01:00:36.851Z,9.88
2022-10-26T01:03:08.037Z,9.77
2022-10-26T01:05:37.669Z,9.71
2022-10-26T01:08:04.571Z,9.70
2022-10-26T01:10:31.695Z,9.73
2022-10-26T01:12:59.334Z,9.71
2022-10-26T01:15:38.550Z,9.75
2022-10-26T01:18:23.138Z,9.78
2022-10-26T01:21:02.493Z,9.88
2022-10-26T01:23:35.171Z,9.92
2022-10-26T01:26:07.814Z,9.99
2022-10-26T01:28:58.932Z,9.97
2022-10-26T01:31:34.277Z,9.81
2022-10-26T01:34:13.432Z,9.80
2022-10-26T01:36:53.531Z,9.81
2022-10-26T01:39:29.849Z,9.68
2022-10-26T01:42:00.781Z,9.62
2022-10-26T01:44:42.911Z,9.58
2022-10-26T01:47:13.982Z,9.62
2022-10-26T01:49:46.920Z,9.48
2022-10-26T01:52:13.983Z,9.44
2022-10-26T01:54:40.567Z,9.44
2022-10-26T01:57:11.655Z,9.48
2022-10-26T02:00:00.296Z,9.45
2022-10-26T02:02:37.975Z,9.48
2022-10-26T02:05:42.920Z,9.53
2022-10-26T02:08:43.064Z,9.57
2022-10-26T02:11:30.110Z,9.63
2022-10-26T02:14:11.743Z,9.74
2022-10-26T02:17:19.012Z,9.65
2022-10-26T02:19:57.759Z,9.59
2022-10-26T02:22:36.674Z,9.61
2022-10-26T02:25:09.686Z,9.58
2022-10-26T02:27:40.752Z,9.60
2022-10-26T02:30:09.609Z,9.57
2022-10-26T02:32:40.920Z,9.60
2022-10-26T02:35:07.891Z,9.47
2022-10-26T02:37:37.764Z,9.39
2022-10-26T02:40:09.527Z,9.32
2022-10-26T02:42:39.450Z,9.46
2022-10-26T02:45:11.010Z,9.52
2022-10-26T02:47:37.965Z,9.62
2022-10-26T02:50:05.037Z,9.72
2022-10-26T02:52:50.090Z,9.79
2022-10-26T02:55:27.654Z,9.84
2022-10-26T02:58:06.473Z,9.94
2022-10-26T03:00:33.621Z,10.02
2022-10-26T03:03:03.501Z,10.12
2022-10-26T03:05:36.907Z,10.17
2022-10-26T03:08:04.022Z,10.29
2022-10-26T03:10:33.751Z,10.39
2022-10-26T03:13:00.369Z,10.37
2022-10-26T03:15:27.257Z,10.48
2022-10-26T03:17:53.864Z,10.52
2022-10-26T03:20:20.458Z,10.59
2022-10-26T03:22:48.110Z,10.58
2022-10-26T03:25:15.699Z,10.58
2022-10-26T03:27:42.717Z,10.63
2022-10-26T03:30:09.928Z,10.65
2022-10-26T03:32:36.579Z,10.71
2022-10-26T03:35:03.382Z,10.48
2022-10-26T03:37:29.993Z,10.59
2022-10-26T03:39:56.689Z,10.53
2022-10-26T03:42:23.256Z,10.55
2022-10-26T03:44:49.944Z,10.53
2022-10-26T03:47:16.565Z,10.57
2022-10-26T03:49:43.231Z,10.55
2022-10-26T03:52:09.853Z,10.61
2022-10-26T03:54:36.479Z,10.53
2022-10-26T03:57:03.115Z,10.54
2022-10-26T03:59:29.708Z,10.55
2022-10-26T04:01:57.883Z,10.68
2022-10-26T04:04:25.259Z,10.63
2022-10-26T04:06:51.900Z,10.65
2022-10-26T04:09:18.500Z,10.59
2022-10-26T04:11:45.178Z,10.60
2022-10-26T04:14:11.835Z,10.61
2022-10-26T04:16:38.476Z,10.65
2022-10-26T04:19:05.096Z,10.76
2022-10-26T04:21:33.121Z,10.82
2022-10-26T04:23:59.789Z,10.80
2022-10-26T04:26:26.388Z,10.76
2022-10-26T04:28:53.049Z,10.58
2022-10-26T04:31:19.967Z,10.67
2022-10-26T04:33:46.614Z,10.71
2022-10-26T04:36:13.205Z,10.66
2022-10-26T04:38:39.768Z,10.63
2022-10-26T04:41:06.387Z,10.63
2022-10-26T04:43:33.135Z,10.54
2022-10-26T04:45:59.732Z,10.52
2022-10-26T04:48:26.365Z,10.47
2022-10-26T04:50:53.161Z,10.55
2022-10-26T04:53:19.783Z,10.58
2022-10-26T04:55:46.414Z,10.64
2022-10-26T04:58:13.118Z,10.64
2022-10-26T05:00:39.710Z,10.66
2022-10-26T05:03:07.356Z,10.65
2022-10-26T05:05:35.795Z,10.61
2022-10-26T05:08:02.660Z,10.58
2022-10-26T05:10:29.540Z,10.59
2022-10-26T05:12:57.767Z,10.60
2022-10-26T05:15:24.552Z,10.58
2022-10-26T05:18:02.854Z,10.61
2022-10-26T05:20:31.363Z,10.59
2022-10-26T05:23:00.988Z,10.58
2022-10-26T05:25:29.819Z,10.59
2022-10-26T05:28:00.819Z,10.60
2022-10-26T05:30:28.747Z,10.59
2022-10-26T05:33:00.341Z,10.61
2022-10-26T05:35:27.304Z,10.57
2022-10-26T05:37:54.548Z,10.58
2022-10-26T05:40:21.617Z,10.61
2022-10-26T05:42:48.717Z,10.63
2022-10-26T05:45:15.567Z,10.58
2022-10-26T05:47:45.142Z,10.57
2022-10-26T05:50:13.009Z,10.57
2022-10-26T05:52:44.603Z,10.58
2022-10-26T05:55:16.297Z,10.49
2022-10-26T05:57:43.610Z,10.45
2022-10-26T06:00:16.660Z,10.37
2022-10-26T06:03:01.476Z,10.42
2022-10-26T06:05:31.534Z,10.39
2022-10-26T06:07:58.439Z,10.42
2022-10-26T06:10:25.640Z,10.44
2022-10-26T06:12:52.768Z,10.33
2022-10-26T06:15:21.557Z,10.29
2022-10-26T06:18:07.561Z,10.20
2022-10-26T06:20:50.630Z,10.24
2022-10-26T06:23:55.836Z,10.21
2022-10-26T06:26:50.468Z,10.13
2022-10-26T06:29:17.928Z,10.16
2022-10-26T06:31:46.058Z,10.16
2022-10-26T06:34:17.653Z,10.00
2022-10-26T06:36:46.531Z,9.99
2022-10-26T06:39:15.227Z,10.09
2022-10-26T06:41:42.217Z,10.23
2022-10-26T06:44:15.703Z,10.37
2022-10-26T06:47:07.585Z,10.49
2022-10-26T06:49:42.829Z,10.53
2022-10-26T06:52:29.370Z,10.63
2022-10-26T06:54:56.383Z,10.73
2022-10-26T06:57:26.704Z,10.81
2022-10-26T06:59:54.631Z,10.90
2022-10-26T07:02:21.771Z,10.98
2022-10-26T07:04:48.539Z,11.13
2022-10-26T07:07:21.909Z,11.26
2022-10-26T07:09:49.047Z,12.06
2022-10-26T07:12:15.880Z,12.28
2022-10-26T07:14:42.578Z,12.26
2022-10-26T07:17:10.114Z,11.94
2022-10-26T07:19:36.773Z,12.11
2022-10-26T07:22:03.995Z,12.32
2022-10-26T07:24:31.534Z,12.55
2022-10-26T07:26:59.037Z,12.52
2022-10-26T07:29:27.281Z,12.62
2022-10-26T07:34:20.540Z,18.52
2022-10-26T07:36:47.151Z,20.48
2022-10-26T07:39:13.728Z,21.47
2022-10-26T07:41:40.426Z,21.41
2022-10-26T07:44:07.018Z,23.43
2022-10-26T07:46:33.724Z,24.59
2022-10-26T07:49:00.380Z,25.04
2022-10-26T07:51:27.115Z,25.23
2022-10-26T07:53:53.789Z,22.69
2022-10-26T07:56:20.432Z,20.93
2022-10-26T07:58:47.076Z,19.08
2022-10-26T08:01:15.673Z,19.85
2022-10-26T08:03:42.591Z,21.31
2022-10-26T08:06:10.462Z,24.30
2022-10-26T08:08:37.857Z,25.75
2022-10-26T08:11:05.742Z,26.79
2022-10-26T08:13:35.394Z,20.62
2022-10-26T08:16:05.811Z,21.15
2022-10-26T08:18:32.669Z,26.29
2022-10-26T08:21:10.818Z,22.17
2022-10-26T08:23:38.672Z,21.92
2022-10-26T08:26:05.689Z,18.98
2022-10-26T08:28:32.302Z,20.28
2022-10-26T08:30:59.323Z,20.52
2022-10-26T08:33:26.368Z,20.56
2022-10-26T08:36:00.943Z,18.91
2022-10-26T08:38:28.140Z,19.25
2022-10-26T08:40:57.860Z,18.34
2022-10-26T08:43:31.788Z,19.04
2022-10-26T08:46:09.516Z,18.34
2022-10-26T08:48:46.374Z,18.38
2022-10-26T08:51:24.586Z,18.36
2022-10-26T08:54:01.830Z,18.47
2022-10-26T08:56:39.050Z,18.57
2022-10-26T08:59:08.345Z,17.98
2022-10-26T09:01:35.047Z,17.20
2022-10-26T09:04:04.079Z,17.46
2022-10-26T09:06:42.358Z,18.34
2022-10-26T09:09:23.974Z,18.66
2022-10-26T09:12:11.407Z,18.59
2022-10-26T09:14:41.096Z,19.24
2022-10-26T09:17:29.268Z,19.57
2022-10-26T09:20:26.551Z,21.24
2022-10-26T09:22:53.063Z,21.11
2022-10-26T09:25:22.931Z,21.43
2022-10-26T09:27:57.440Z,20.91
2022-10-26T09:30:24.348Z,21.64
2022-10-26T09:32:59.944Z,21.66
2022-10-26T09:35:31.884Z,20.27
2022-10-26T09:38:10.268Z,21.79
2022-10-26T09:41:01.382Z,22.05
2022-10-26T09:43:57.981Z,24.01
2022-10-26T09:46:33.559Z,24.76
2022-10-26T09:49:08.643Z,23.45
2022-10-26T09:51:38.142Z,22.02
2022-10-26T09:54:14.930Z,23.86
2022-10-26T09:56:47.748Z,23.28
2022-10-26T09:59:17.957Z,23.07
2022-10-26T10:01:44.607Z,23.49
2022-10-26T10:04:14.212Z,26.59
2022-10-26T10:06:41.208Z,27.98
2022-10-26T10:09:12.063Z,25.31
2022-10-26T10:11:45.734Z,25.46
2022-10-26T10:14:17.832Z,24.24
2022-10-26T10:16:57.503Z,22.21
2022-10-26T10:19:27.709Z,24.69
2022-10-26T10:21:57.232Z,27.55
2022-10-26T10:24:31.006Z,27.38
2022-10-26T10:27:00.701Z,27.56
2022-10-26T10:29:29.348Z,26.04
2022-10-26T10:32:01.667Z,25.06
2022-10-26T10:34:32.785Z,25.86
2022-10-26T10:37:01.510Z,26.00
2022-10-26T10:39:41.040Z,24.89
2022-10-26T10:42:18.588Z,25.59
2022-10-26T10:44:47.046Z,26.33
2022-10-26T10:47:22.488Z,23.98
2022-10-26T10:49:58.255Z,24.42
2022-10-26T10:52:35.721Z,26.06
2022-10-26T10:55:17.978Z,27.40
2022-10-26T10:58:15.164Z,27.33
2022-10-26T11:00:44.017Z,26.26
2022-10-26T11:03:29.309Z,25.58
2022-10-26T11:06:16.620Z,27.70
2022-10-26T11:09:00.242Z,28.36
2022-10-26T11:11:33.085Z,28.02
2022-10-26T11:14:12.314Z,28.39
2022-10-26T11:16:55.332Z,26.99
2022-10-26T11:19:30.325Z,25.99
2022-10-26T11:21:57.431Z,26.14
2022-10-26T11:24:36.663Z,26.44
2022-10-26T11:27:23.867Z,26.38
2022-10-26T11:30:18.200Z,25.24
2022-10-26T11:32:51.958Z,24.78
2022-10-26T11:35:27.002Z,25.37
2022-10-26T11:38:39.283Z,23.40
2022-10-26T11:41:28.917Z,22.85
2022-10-26T11:44:35.522Z,21.39
2022-10-26T11:47:08.457Z,21.45
2022-10-26T11:49:48.001Z,20.97
2022-10-26T11:52:46.733Z,21.25
2022-10-26T11:55:13.722Z,20.60
2022-10-26T11:57:41.909Z,20.28
2022-10-26T12:00:17.637Z,20.66
2022-10-26T12:02:50.446Z,20.37
2022-10-26T12:05:24.227Z,20.48
2022-10-26T12:07:54.799Z,20.65
2022-10-26T12:10:34.234Z,20.08
2022-10-26T12:13:24.976Z,20.30
2022-10-26T12:16:03.550Z,20.70
2022-10-26T12:18:54.981Z,21.10
2022-10-26T12:21:27.755Z,20.69
2022-10-26T12:24:02.711Z,20.48
2022-10-26T12:26:29.303Z,20.26
2022-10-26T12:29:01.975Z,19.70
2022-10-26T12:31:37.410Z,19.74
2022-10-26T12:34:09.473Z,19.52
2022-10-26T12:36:57.262Z,19.60
2022-10-26T12:39:31.328Z,19.93
2022-10-26T12:41:59.117Z,19.88
2022-10-26T12:44:36.309Z,19.65
2022-10-26T12:47:06.686Z,19.86
2022-10-26T12:50:01.980Z,19.86
2022-10-26T12:52:39.842Z,19.63
2022-10-26T12:55:12.710Z,19.75
2022-10-26T12:57:58.281Z,20.40
2022-10-26T13:00:26.915Z,20.72
2022-10-26T13:03:08.970Z,20.99
2022-10-26T13:05:50.596Z,20.93
2022-10-26T13:08:17.923Z,21.04
2022-10-26T13:11:02.759Z,21.33
2022-10-26T13:13:31.815Z,21.01
2022-10-26T13:16:00.518Z,21.22
2022-10-26T13:18:27.933Z,21.21
2022-10-26T13:21:11.529Z,21.04
2022-10-26T13:23:41.012Z,21.16
2022-10-26T13:26:17.314Z,21.00
2022-10-26T13:28:47.260Z,20.77
2022-10-26T13:31:29.216Z,20.78
2022-10-26T13:34:01.994Z,20.80
2022-10-26T13:36:37.071Z,21.31
2022-10-26T13:39:17.375Z,21.12
2022-10-26T13:41:46.460Z,21.35
2022-10-26T13:44:27.559Z,21.32
2022-10-26T13:47:09.757Z,20.61
2022-10-26T13:49:42.525Z,20.14
2022-10-26T13:52:18.036Z,20.14
2022-10-26T13:54:55.488Z,20.19
2022-10-26T13:57:38.924Z,19.89
2022-10-26T14:00:22.730Z,19.61
2022-10-26T14:02:49.749Z,19.95
2022-10-26T14:05:18.396Z,20.02
2022-10-26T14:07:57.461Z,20.07
2022-10-26T14:10:32.893Z,20.27
2022-10-26T14:13:00.832Z,20.09
2022-10-26T14:15:30.959Z,20.34
2022-10-26T14:18:00.642Z,20.05
2022-10-26T14:20:29.977Z,20.13
2022-10-26T14:22:57.244Z,19.99
2022-10-26T14:25:36.102Z,20.02
2022-10-26T14:28:28.580Z,20.19
2022-10-26T14:31:10.242Z,19.89
2022-10-26T14:33:36.883Z,20.06
2022-10-26T14:36:04.049Z,19.82
2022-10-26T14:38:40.368Z,19.83
2022-10-26T14:41:07.094Z,19.89
2022-10-26T14:43:34.080Z,19.76
2022-10-26T14:46:00.780Z,19.69
2022-10-26T14:48:32.684Z,19.69
2022-10-26T14:51:16.041Z,19.58
2022-10-26T14:53:49.942Z,19.48
2022-10-26T14:56:31.662Z,19.50
2022-10-26T14:58:58.947Z,19.47
2022-10-26T15:01:30.345Z,19.38
2022-10-26T15:04:07.350Z,18.96
2022-10-26T15:06:41.614Z,19.03
2022-10-26T15:09:29.953Z,18.96
2022-10-26T15:11:56.714Z,18.94
2022-10-26T15:14:23.428Z,18.59
2022-10-26T15:16:54.401Z,18.12
2022-10-26T15:19:23.887Z,18.07
2022-10-26T15:21:52.969Z,18.12
2022-10-26T15:24:22.613Z,17.78
2022-10-26T15:26:49.357Z,17.80
2022-10-26T15:29:36.519Z,17.64
2022-10-26T15:34:32.585Z,17.24
2022-10-26T15:36:59.236Z,16.89
2022-10-26T15:39:26.604Z,16.85
2022-10-26T15:41:53.643Z,16.83
2022-10-26T15:44:22.132Z,16.63
2022-10-26T15:46:50.085Z,16.46
2022-10-26T15:49:21.259Z,16.46
2022-10-26T15:51:49.010Z,16.37
2022-10-26T15:54:15.769Z,16.33
2022-10-26T15:56:46.012Z,16.13
2022-10-26T15:59:19.229Z,15.88
2022-10-26T16:01:46.109Z,15.83
2022-10-26T16:04:12.897Z,15.74
2022-10-26T16:06:41.733Z,15.58
2022-10-26T16:09:15.449Z,15.45
2022-10-26T16:11:43.135Z,15.43
2022-10-26T16:14:10.796Z,15.38
2022-10-26T16:16:37.608Z,15.30
2022-10-26T16:19:29.674Z,15.27
2022-10-26T16:21:52.224Z,15.18
2022-10-26T16:24:18.862Z,15.05
2022-10-26T16:26:45.732Z,15.00
2022-10-26T16:29:12.399Z,15.00
2022-10-26T16:31:39.041Z,14.88
2022-10-26T16:34:05.813Z,14.83
2022-10-26T16:36:35.303Z,14.76
2022-10-26T16:41:34.666Z,14.51
2022-10-26T16:44:01.359Z,14.56
2022-10-26T16:46:28.068Z,14.34
2022-10-26T16:48:54.826Z,14.22
2022-10-26T16:51:24.000Z,14.19
2022-10-26T16:53:53.892Z,14.12
2022-10-26T16:56:26.384Z,14.11
2022-10-26T16:58:53.322Z,14.05
2022-10-26T17:01:21.441Z,13.95
2022-10-26T17:03:50.252Z,13.95
2022-10-26T17:06:18.170Z,13.90
2022-10-26T17:08:44.845Z,13.83
2022-10-26T17:11:17.782Z,13.62
2022-10-26T17:13:44.820Z,13.58
2022-10-26T17:16:17.697Z,13.54
2022-10-26T17:18:45.251Z,13.50
2022-10-26T17:21:13.581Z,13.39
2022-10-26T17:23:40.547Z,13.31
2022-10-26T17:26:09.995Z,13.26
2022-10-26T17:28:36.918Z,13.19
2022-10-26T17:31:03.598Z,13.13
2022-10-26T17:33:33.498Z,13.11
2022-10-26T17:36:03.051Z,13.01
2022-10-26T17:38:34.019Z,13.07
2022-10-26T17:41:02.214Z,13.06
2022-10-26T17:43:32.702Z,12.98
2022-10-26T17:46:00.259Z,12.79
2022-10-26T17:48:28.248Z,12.70
2022-10-26T17:50:57.815Z,12.34
2022-10-26T17:53:24.441Z,12.55
2022-10-26T17:55:59.320Z,12.63
2022-10-26T17:58:25.912Z,12.64
2022-10-26T18:00:52.488Z,12.52
2022-10-26T18:03:19.093Z,12.45
2022-10-26T18:05:50.037Z,12.48
2022-10-26T18:08:17.194Z,12.47
2022-10-26T18:10:51.665Z,12.43
2022-10-26T18:13:18.800Z,12.35
2022-10-26T18:15:45.764Z,12.36
2022-10-26T18:18:13.193Z,12.36
2022-10-26T18:20:40.057Z,12.33
2022-10-26T18:23:06.737Z,12.30
2022-10-26T18:25:33.837Z,12.25
2022-10-26T18:28:00.524Z,12.23
2022-10-26T18:30:27.296Z,12.20
2022-10-26T18:32:54.430Z,12.14
2022-10-26T18:35:21.631Z,12.10
2022-10-26T18:37:48.725Z,12.06
2022-10-26T18:40:15.829Z,12.02
2022-10-26T18:42:42.612Z,11.89
2022-10-26T18:45:09.553Z,11.75
2022-10-26T18:47:36.205Z,11.74
2022-10-26T18:50:02.972Z,11.69
2022-10-26T18:52:29.932Z,11.55
2022-10-26T18:54:56.774Z,11.45
2022-10-26T18:57:28.412Z,11.29
2022-10-26T18:59:55.340Z,11.28
2022-10-26T19:02:22.958Z,11.23
2022-10-26T19:04:51.641Z,11.28
2022-10-26T19:07:18.312Z,11.37
2022-10-26T19:09:44.963Z,11.40
2022-10-26T19:12:11.573Z,11.39
2022-10-26T19:14:38.316Z,11.41
2022-10-26T19:17:05.005Z,11.36
2022-10-26T19:19:31.641Z,11.35
2022-10-26T19:22:00.252Z,11.36
2022-10-26T19:24:27.090Z,11.39
2022-10-26T19:26:54.126Z,11.31
2022-10-26T19:29:20.947Z,11.30
2022-10-26T19:31:50.557Z,11.26
2022-10-26T19:34:17.914Z,11.29
2022-10-26T19:36:46.240Z,11.26
2022-10-26T19:39:17.033Z,11.24
2022-10-26T19:41:45.134Z,11.21
2022-10-26T19:44:12.411Z,11.16
2022-10-26T19:46:39.837Z,11.03
2022-10-26T19:49:07.357Z,10.98
2022-10-26T19:51:35.625Z,10.86
2022-10-26T19:54:03.928Z,10.84
2022-10-26T19:56:32.059Z,10.85
2022-10-26T19:58:58.748Z,10.89
2022-10-26T20:01:25.554Z,10.85
2022-10-26T20:03:52.323Z,10.87
2022-10-26T20:06:19.278Z,10.83
2022-10-26T20:08:48.381Z,10.80
2022-10-26T20:11:16.838Z,10.73
2022-10-26T20:13:45.459Z,10.77
2022-10-26T20:16:13.517Z,10.69
2022-10-26T20:18:44.050Z,10.66
2022-10-26T20:21:14.887Z,10.65
2022-10-26T20:23:42.702Z,10.56
2022-10-26T20:26:11.812Z,10.59
2022-10-26T20:28:45.260Z,10.57
2022-10-26T20:31:12.401Z,10.55
2022-10-26T20:33:39.344Z,10.54
2022-10-26T20:36:06.492Z,10.50
2022-10-26T20:38:33.570Z,10.48
2022-10-26T20:41:02.671Z,10.45
2022-10-26T20:43:31.774Z,10.41
2022-10-26T20:45:58.728Z,10.35
2022-10-26T20:48:25.756Z,10.30
2022-10-26T20:51:07.748Z,10.24
2022-10-26T20:53:37.876Z,10.19
2022-10-26T20:56:07.145Z,10.27
2022-10-26T20:58:41.143Z,10.27
2022-10-26T21:01:19.166Z,10.14
2022-10-26T21:03:45.875Z,10.08
2022-10-26T21:06:12.617Z,10.04
2022-10-26T21:08:39.599Z,10.12
2022-10-26T21:11:06.557Z,10.17
2022-10-26T21:13:33.165Z,10.25
2022-10-26T21:16:04.028Z,10.36
2022-10-26T21:18:32.241Z,10.40
2022-10-26T21:21:00.144Z,10.33
2022-10-26T21:23:31.037Z,10.34
2022-10-26T21:25:57.661Z,10.41
2022-10-26T21:28:24.661Z,10.32
2022-10-26T21:30:51.347Z,10.31
2022-10-26T21:33:20.100Z,10.28
2022-10-26T21:35:54.334Z,10.41
2022-10-26T21:38:21.009Z,10.51
2022-10-26T21:40:47.642Z,10.55
2022-10-26T21:43:14.438Z,10.52
2022-10-26T21:45:41.129Z,10.60
2022-10-26T21:48:07.834Z,10.58
2022-10-26T21:50:34.476Z,10.47
2022-10-26T21:53:01.083Z,10.42
2022-10-26T21:55:27.760Z,10.24
2022-10-26T21:57:54.423Z,10.24
2022-10-26T22:00:21.235Z,10.26
2022-10-26T22:02:48.242Z,10.20
2022-10-26T22:05:15.059Z,10.28
2022-10-26T22:07:41.691Z,10.04
2022-10-26T22:10:10.679Z,10.02
2022-10-26T22:12:37.727Z,9.88
2022-10-26T22:15:04.842Z,9.97
2022-10-26T22:17:31.478Z,10.09
2022-10-26T22:19:58.086Z,10.01
2022-10-26T22:22:24.678Z,9.98
2022-10-26T22:24:51.297Z,9.83
2022-10-26T22:27:17.883Z,9.76
2022-10-26T22:29:44.542Z,9.83
2022-10-26T22:32:11.143Z,9.78
2022-10-26T22:34:37.816Z,9.87
2022-10-26T22:37:04.434Z,9.94
2022-10-26T22:39:31.037Z,9.95
2022-10-26T22:41:57.726Z,9.99
2022-10-26T22:44:24.331Z,9.84
2022-10-26T22:46:50.921Z,9.79
2022-10-26T22:49:17.657Z,9.80
2022-10-26T22:51:44.241Z,9.91
2022-10-26T22:54:11.884Z,9.95
2022-10-26T22:56:38.584Z,10.01
2022-10-26T22:59:05.878Z,10.04
2022-10-26T23:01:36.358Z,10.02
2022-10-26T23:04:03.091Z,9.99
2022-10-26T23:06:32.392Z,9.83
2022-10-26T23:08:59.721Z,9.62
2022-10-26T23:11:28.450Z,9.63
2022-10-26T23:13:57.156Z,9.76
2022-10-26T23:16:24.515Z,9.77
2022-10-26T23:18:53.368Z,9.69
2022-10-26T23:21:21.534Z,9.55
2022-10-26T23:23:48.737Z,9.32
2022-10-26T23:26:17.897Z,9.27
2022-10-26T23:28:45.411Z,9.26
2022-10-26T23:31:16.569Z,9.40
2022-10-26T23:33:44.029Z,9.56
2022-10-26T23:36:10.781Z,9.60
2022-10-26T23:38:37.450Z,9.59
2022-10-26T23:41:05.425Z,9.45
2022-10-26T23:43:34.853Z,9.45
2022-10-26T23:46:01.592Z,9.38
2022-10-26T23:48:28.584Z,9.37
2022-10-26T23:50:55.530Z,9.43
2022-10-26T23:53:23.587Z,9.26
2022-10-26T23:55:50.501Z,9.26
2022-10-26T23:58:18.327Z,9.09
